Time;durP1;ratioP1;P1;durP2;ratioP2;P2;SDS_P1;SDS_P2;PMS_P1;PMS_P2;Temp;Humidity;BMP_temperature;BMP_pressure;BME280_temperature;BME280_humidity;BME280_pressure;Samples;Min_cycle;Max_cycle;Signal;HPM_P1;HPM_P2
2022/01/28 00:02:32;;;;;;;3.23;1.00;;;;;;;;;;5127770;27;20453;-60
2022/01/28 00:04:57;;;;;;;2.23;1.13;;;6.10;1.00;;;;;;5128788;27;20805;-60
2022/01/28 00:07:23;;;;;;;4.10;1.33;;;6.20;1.00;;;;;;5124022;27;20450;-60
2022/01/28 00:09:49;;;;;;;2.73;1.10;;;6.20;1.00;;;;;;5126875;27;20644;-60
2022/01/28 00:12:14;;;;;;;3.80;1.20;;;6.30;1.00;;;;;;5129017;27;20185;-59
2022/01/28 00:17:37;;;;;;;2.47;0.83;;;6.10;1.00;;;;;;5130042;27;20185;-59
2022/01/28 00:38:47;;;;;;;1.70;0.80;;;6.10;1.00;;;;;;5126223;27;20504;-58
2022/01/28 00:41:14;;;;;;;2.30;0.97;;;6.10;1.00;;;;;;5129507;27;20439;-60
2022/01/28 00:43:41;;;;;;;3.97;1.10;;;;;;;;;;5127474;27;20242;-60
2022/01/28 00:46:07;;;;;;;6.07;1.73;;;6.10;1.00;;;;;;5126409;27;20820;-60
2022/01/28 00:48:33;;;;;;;2.20;1.00;;;;;;;;;;5126736;27;20447;-58
2022/01/28 00:50:59;;;;;;;5.97;1.27;;;;;;;;;;5124350;27;20522;-59
2022/01/28 00:53:25;;;;;;;1.07;0.70;;;;;;;;;;5126170;27;20544;-59
2022/01/28 00:55:54;;;;;;;5.10;1.57;;;6.20;1.00;;;;;;5126309;28;20450;-60
2022/01/28 00:58:22;;;;;;;1.20;0.70;;;6.10;1.00;;;;;;5124052;27;20479;-59
2022/01/28 01:00:53;;;;;;;2.00;0.87;;;6.10;1.00;;;;;;5127017;27;20982;-60
2022/01/28 01:03:19;;;;;;;1.33;1.00;;;6.10;1.00;;;;;;5126628;28;20458;-59
2022/01/28 01:05:44;;;;;;;1.40;1.10;;;6.10;1.00;;;;;;5125415;28;20479;-59
2022/01/28 01:08:10;;;;;;;5.67;1.07;;;6.10;1.00;;;;;;5127716;28;20187;-59
2022/01/28 01:10:36;;;;;;;5.63;0.97;;;6.00;1.00;;;;;;5109420;28;20185;-60
2022/01/28 01:13:02;;;;;;;1.63;0.80;;;6.10;1.00;;;;;;5125069;28;20281;-60
2022/01/28 01:15:33;;;;;;;4.50;1.17;;;6.00;1.00;;;;;;5129034;28;20484;-59
2022/01/28 01:18:23;;;;;;;4.97;1.20;;;6.10;1.00;;;;;;5122883;28;20444;-60
2022/01/28 01:23:23;;;;;;;2.53;1.00;;;6.10;1.00;;;;;;5127099;28;20439;-59
2022/01/28 01:25:57;;;;;;;6.83;1.00;;;6.10;1.00;;;;;;5126065;27;20228;-59
2022/01/28 01:28:29;;;;;;;4.30;1.13;;;6.00;1.00;;;;;;5113362;27;20458;-60
2022/01/28 01:30:56;;;;;;;13.93;1.33;;;6.00;1.00;;;;;;5123962;28;20439;-60
2022/01/28 01:33:22;;;;;;;3.43;1.20;;;6.00;1.00;;;;;;5117767;27;20447;-60
2022/01/28 01:35:48;;;;;;;6.77;1.83;;;;;;;;;;5118866;27;20459;-59
2022/01/28 01:38:14;;;;;;;5.97;1.33;;;6.00;1.00;;;;;;5121034;27;20193;-59
2022/01/28 01:40:46;;;;;;;6.97;1.17;;;6.00;1.00;;;;;;5109351;28;20435;-59
2022/01/28 01:43:20;;;;;;;4.83;1.07;;;;;;;;;;5129474;27;20177;-59
2022/01/28 01:53:52;;;;;;;5.30;1.40;;;5.90;1.00;;;;;;5128601;27;20519;-58
2022/01/28 01:56:19;;;;;;;5.13;1.50;;;5.90;1.00;;;;;;5114379;27;20803;-59
2022/01/28 01:58:46;;;;;;;3.90;1.63;;;5.90;1.00;;;;;;5129068;27;20186;-59
2022/01/28 02:01:11;;;;;;;4.47;1.47;;;6.00;1.00;;;;;;5131336;27;20434;-59
2022/01/28 02:03:37;;;;;;;4.53;1.53;;;6.00;1.00;;;;;;5131144;27;20435;-60
2022/01/28 02:06:04;;;;;;;4.03;1.10;;;5.90;1.00;;;;;;5131147;27;20549;-60
2022/01/28 02:08:33;;;;;;;3.63;1.40;;;5.90;1.00;;;;;;5130754;27;20434;-60
2022/01/28 02:11:00;;;;;;;1.93;1.53;;;6.00;1.00;;;;;;5130408;27;20468;-60
2022/01/28 02:13:27;;;;;;;2.50;1.10;;;5.90;1.00;;;;;;5129569;27;20890;-60
2022/01/28 02:15:54;;;;;;;2.67;1.00;;;6.00;1.00;;;;;;5128858;27;20475;-59
2022/01/28 02:18:21;;;;;;;5.90;1.30;;;6.10;1.00;;;;;;5129070;27;20450;-59
2022/01/28 02:20:49;;;;;;;5.20;1.73;;;6.00;1.00;;;;;;5130630;27;20482;-60
2022/01/28 02:23:15;;;;;;;4.70;1.10;;;;;;;;;;5130773;27;20501;-59
2022/01/28 02:25:42;;;;;;;4.90;1.67;;;6.00;1.00;;;;;;5130432;27;20530;-59
2022/01/28 02:28:11;;;;;;;5.03;1.27;;;5.90;1.00;;;;;;5128572;27;20488;-60
2022/01/28 02:30:37;;;;;;;6.10;1.37;;;5.80;1.00;;;;;;5128504;27;20421;-59
2022/01/28 02:33:12;;;;;;;4.17;1.13;;;5.80;1.00;;;;;;5132177;27;20434;-59
2022/01/28 02:35:39;;;;;;;5.93;1.70;;;5.80;1.00;;;;;;5127677;27;20177;-59
2022/01/28 02:38:04;;;;;;;4.33;0.93;;;5.80;1.00;;;;;;5124877;27;20500;-59
2022/01/28 02:40:31;;;;;;;1.73;0.87;;;5.80;1.00;;;;;;5126483;27;20508;-59
2022/01/28 02:43:02;;;;;;;3.93;1.30;;;5.80;1.00;;;;;;5128483;27;20745;-60
2022/01/28 02:45:33;;;;;;;4.67;1.10;;;5.80;1.00;;;;;;5128013;27;20482;-59
2022/01/28 02:48:06;;;;;;;5.83;2.27;;;5.90;1.00;;;;;;5113779;27;20437;-60
2022/01/28 02:50:41;;;;;;;8.63;2.10;;;5.80;1.00;;;;;;5129920;27;20446;-60
2022/01/28 02:53:09;;;;;;;6.63;1.67;;;5.80;1.00;;;;;;5131582;27;21655;-58
2022/01/28 02:55:39;;;;;;;2.77;0.93;;;5.70;1.00;;;;;;5107852;27;20546;-59
2022/01/28 02:58:20;;;;;;;3.07;1.27;;;5.70;1.00;;;;;;5129639;27;21755;-58
2022/01/28 03:00:47;;;;;;;8.27;1.57;;;5.80;1.00;;;;;;5127496;27;20479;-59
2022/01/28 03:03:15;;;;;;;2.87;1.37;;;5.80;1.00;;;;;;5127974;27;20779;-59
2022/01/28 03:05:41;;;;;;;5.27;1.50;;;5.70;1.00;;;;;;5129712;27;20498;-59
2022/01/28 03:08:06;;;;;;;5.97;1.10;;;5.70;1.00;;;;;;5130181;27;20469;-59
2022/01/28 03:13:14;;;;;;;4.70;1.60;;;;;;;;;;5129322;27;20212;-59
2022/01/28 03:15:41;;;;;;;6.43;1.70;;;5.80;1.00;;;;;;5111939;27;20430;-59
2022/01/28 03:18:12;;;;;;;2.93;1.23;;;5.80;1.00;;;;;;5127731;27;20479;-59
2022/01/28 03:20:55;;;;;;;3.03;0.70;;;5.70;1.00;;;;;;5126040;27;20446;-59
2022/01/28 03:23:20;;;;;;;4.23;1.37;;;5.60;1.00;;;;;;5130744;27;20458;-60
2022/01/28 03:25:47;;;;;;;2.90;1.13;;;5.70;1.00;;;;;;5106368;27;20951;-60
2022/01/28 03:28:15;;;;;;;4.07;0.97;;;5.70;1.00;;;;;;5108682;27;20403;-59
2022/01/28 03:30:41;;;;;;;2.73;1.37;;;5.60;1.00;;;;;;5115817;27;20533;-58
2022/01/28 03:33:06;;;;;;;6.30;1.30;;;5.60;1.00;;;;;;5130100;27;20521;-60
2022/01/28 03:35:34;;;;;;;4.27;1.50;;;5.60;1.00;;;;;;5110775;27;20448;-60
2022/01/28 03:38:00;;;;;;;9.53;1.80;;;5.70;1.00;;;;;;5131016;27;20196;-59
2022/01/28 03:40:27;;;;;;;8.47;1.70;;;5.60;1.00;;;;;;5125784;27;20943;-59
2022/01/28 03:42:53;;;;;;;6.60;2.30;;;5.60;1.00;;;;;;5128101;27;20792;-60
2022/01/28 03:45:18;;;;;;;5.00;1.10;;;5.70;1.00;;;;;;5108576;27;20523;-59
2022/01/28 03:47:44;;;;;;;2.00;1.07;;;;;;;;;;5124491;27;20226;-58
2022/01/28 03:50:10;;;;;;;7.40;1.30;;;5.90;1.00;;;;;;5128600;27;20177;-60
2022/01/28 03:52:36;;;;;;;3.00;1.10;;;5.80;1.00;;;;;;5128408;27;20459;-59
2022/01/28 03:55:02;;;;;;;3.40;1.07;;;5.80;1.00;;;;;;5129272;27;20511;-60
2022/01/28 03:57:27;;;;;;;7.40;1.50;;;5.80;1.00;;;;;;5128560;27;20279;-60
2022/01/28 03:59:53;;;;;;;7.97;1.40;;;5.80;1.00;;;;;;5125419;27;20573;-58
2022/01/28 04:02:22;;;;;;;22.50;2.20;;;5.70;1.00;;;;;;5127336;27;20185;-60
2022/01/28 04:12:52;;;;;;;5.13;1.23;;;;;;;;;;5129095;27;20434;-57
2022/01/28 04:17:44;;;;;;;7.97;1.53;;;5.90;1.00;;;;;;5128545;27;20526;-59
2022/01/28 04:20:10;;;;;;;6.13;1.63;;;5.90;1.00;;;;;;5116887;27;20664;-58
2022/01/28 04:22:35;;;;;;;6.43;1.63;;;5.90;1.00;;;;;;5093661;27;20429;-60
2022/01/28 04:25:01;;;;;;;6.67;1.57;;;6.00;1.00;;;;;;5117038;27;20211;-59
2022/01/28 04:27:26;;;;;;;6.40;1.57;;;6.20;1.00;;;;;;5114135;27;20189;-60
2022/01/28 04:29:52;;;;;;;8.90;2.13;;;6.00;1.00;;;;;;5119855;27;20221;-59
2022/01/28 04:32:19;;;;;;;6.20;2.10;;;6.00;1.00;;;;;;5112907;27;20174;-60
2022/01/28 04:34:46;;;;;;;9.40;1.80;;;6.00;1.00;;;;;;5122461;27;20181;-60
2022/01/28 04:40:20;;;;;;;3.47;1.73;;;;;;;;;;5072034;28;20538;-60
2022/01/28 04:45:39;;;;;;;8.80;2.40;;;5.70;1.00;;;;;;5127283;27;20573;-59
2022/01/28 05:17:18;;;;;;;6.17;1.70;;;5.10;1.00;;;;;;5129408;27;20438;-58
2022/01/28 05:25:11;;;;;;;10.63;1.90;;;5.20;1.00;;;;;;5130132;27;20558;-58
2022/01/28 05:27:43;;;;;;;9.30;1.60;;;5.30;1.00;;;;;;5133144;27;20491;-57
2022/01/28 05:30:09;;;;;;;9.80;2.73;;;5.40;1.00;;;;;;5129923;27;20478;-58
2022/01/28 05:32:35;;;;;;;8.90;2.00;;;;;;;;;;5113659;27;20418;-58
2022/01/28 05:35:01;;;;;;;7.83;1.60;;;;;;;;;;5130533;27;20503;-59
2022/01/28 05:37:27;;;;;;;7.20;2.07;;;5.60;1.00;;;;;;5132883;27;20549;-60
2022/01/28 05:39:52;;;;;;;4.33;1.47;;;5.50;1.00;;;;;;5132320;27;21004;-59
2022/01/28 05:42:20;;;;;;;8.17;2.20;;;;;;;;;;5114193;27;20626;-59
2022/01/28 05:44:45;;;;;;;9.33;1.83;;;5.50;1.00;;;;;;5133966;27;20557;-58
2022/01/28 05:47:15;;;;;;;8.37;2.03;;;;;;;;;;5131796;27;20443;-57
2022/01/28 05:49:41;;;;;;;5.70;1.60;;;5.60;1.00;;;;;;5131510;27;20182;-58
2022/01/28 05:52:08;;;;;;;5.13;1.50;;;5.60;1.00;;;;;;5134683;27;20442;-58
2022/01/28 05:54:33;;;;;;;4.40;1.30;;;5.50;1.00;;;;;;5129754;27;20443;-59
2022/01/28 05:56:59;;;;;;;3.43;1.50;;;5.50;1.00;;;;;;5127725;27;20442;-59
2022/01/28 05:59:24;;;;;;;7.00;2.63;;;5.40;1.00;;;;;;5131035;27;21845;-59
2022/01/28 06:01:50;;;;;;;11.73;2.17;;;5.40;1.00;;;;;;5133061;27;20181;-59
2022/01/28 06:04:16;;;;;;;5.57;2.00;;;5.30;1.00;;;;;;5132633;27;20627;-59
2022/01/28 06:06:42;;;;;;;8.73;1.90;;;5.30;1.00;;;;;;5131354;27;20201;-59
2022/01/28 06:09:08;;;;;;;7.57;2.07;;;5.30;1.00;;;;;;5131114;27;20939;-59
2022/01/28 06:11:34;;;;;;;6.77;1.77;;;5.40;1.00;;;;;;5130916;27;20470;-59
2022/01/28 06:13:59;;;;;;;8.70;1.90;;;5.40;1.00;;;;;;5129109;27;20189;-58
2022/01/28 06:16:25;;;;;;;7.07;1.90;;;5.40;1.00;;;;;;5130044;27;20645;-61
2022/01/28 06:18:51;;;;;;;7.17;1.80;;;5.50;1.00;;;;;;5131997;27;20558;-60
2022/01/28 06:21:17;;;;;;;10.60;2.40;;;;;;;;;;5132332;27;20193;-60
2022/01/28 06:23:43;;;;;;;6.80;2.00;;;;;;;;;;5132443;27;20185;-59
2022/01/28 06:26:09;;;;;;;7.00;1.90;;;5.30;1.00;;;;;;5114219;27;20474;-58
2022/01/28 06:28:35;;;;;;;4.13;1.67;;;5.40;1.00;;;;;;5129759;27;20443;-60
2022/01/28 06:31:01;;;;;;;8.80;2.23;;;5.40;1.00;;;;;;5131976;27;20193;-60
2022/01/28 06:33:26;;;;;;;8.43;2.67;;;5.50;1.00;;;;;;5113399;27;20678;-57
2022/01/28 06:35:52;;;;;;;7.17;1.90;;;5.50;1.00;;;;;;5110933;27;20193;-58
2022/01/28 06:38:18;;;;;;;6.20;1.80;;;5.50;1.00;;;;;;5132539;27;20256;-58
2022/01/28 06:40:44;;;;;;;5.40;2.17;;;5.40;1.00;;;;;;5132368;27;20193;-59
2022/01/28 06:43:11;;;;;;;9.33;2.50;;;6.10;1.00;;;;;;5132944;27;20698;-59
2022/01/28 06:45:40;;;;;;;10.33;2.20;;;5.50;1.00;;;;;;5132868;27;20327;-61
2022/01/28 06:48:07;;;;;;;13.73;2.33;;;5.50;1.00;;;;;;5132977;27;20409;-59
2022/01/28 06:50:33;;;;;;;8.10;2.43;;;5.60;1.00;;;;;;5131737;27;20442;-59
2022/01/28 06:52:59;;;;;;;9.10;2.23;;;5.40;1.00;;;;;;5132388;27;20401;-60
2022/01/28 06:55:25;;;;;;;8.10;2.30;;;5.50;1.00;;;;;;5132065;27;20450;-58
2022/01/28 06:57:53;;;;;;;7.70;1.37;;;5.50;1.00;;;;;;5130416;27;20447;-57
2022/01/28 07:00:18;;;;;;;7.03;1.70;;;5.60;1.00;;;;;;5130439;27;20250;-58
2022/01/28 07:02:44;;;;;;;6.03;2.30;;;5.40;1.00;;;;;;5131399;27;20918;-58
2022/01/28 07:05:10;;;;;;;6.50;2.40;;;5.30;1.00;;;;;;5131285;27;20282;-59
2022/01/28 07:07:36;;;;;;;9.30;2.13;;;5.30;1.00;;;;;;5131912;27;20472;-60
2022/01/28 07:10:02;;;;;;;10.33;3.73;;;5.40;1.00;;;;;;5132159;27;20201;-59
2022/01/28 07:12:28;;;;;;;14.00;2.40;;;;;;;;;;5131636;27;20525;-58
2022/01/28 07:14:54;;;;;;;5.87;2.10;;;5.40;1.00;;;;;;5131026;27;20573;-60
2022/01/28 07:17:20;;;;;;;10.77;2.40;;;;;;;;;;5131413;27;20446;-60
2022/01/28 07:19:46;;;;;;;13.73;3.60;;;5.40;1.00;;;;;;5130709;27;20189;-59
2022/01/28 07:22:11;;;;;;;8.10;2.47;;;5.50;1.00;;;;;;5131279;27;20441;-59
2022/01/28 07:24:37;;;;;;;10.90;3.07;;;;;;;;;;5130165;27;20530;-59
2022/01/28 07:27:03;;;;;;;5.30;2.10;;;5.50;1.00;;;;;;5112739;27;20173;-59
2022/01/28 07:29:31;;;;;;;5.10;1.50;;;5.50;1.00;;;;;;5129438;27;20488;-59
2022/01/28 07:31:58;;;;;;;9.80;2.57;;;5.50;1.00;;;;;;5129218;27;20196;-59
2022/01/28 07:34:24;;;;;;;11.27;2.93;;;;;;;;;;5128725;27;20439;-60
2022/01/28 07:36:50;;;;;;;8.20;2.37;;;5.50;1.00;;;;;;5128148;27;20478;-59
2022/01/28 07:39:16;;;;;;;5.90;2.10;;;5.40;1.00;;;;;;5130277;27;20503;-57
2022/01/28 07:41:41;;;;;;;5.50;2.27;;;;;;;;;;5131474;27;21531;-59
2022/01/28 07:44:08;;;;;;;8.33;2.40;;;5.60;1.00;;;;;;5129333;27;20229;-60
2022/01/28 07:46:34;;;;;;;10.33;1.80;;;5.60;1.00;;;;;;5128530;27;21755;-59
2022/01/28 07:49:00;;;;;;;7.50;2.10;;;5.60;1.00;;;;;;5125830;27;20530;-59
2022/01/28 07:51:26;;;;;;;8.17;2.30;;;5.60;1.00;;;;;;5131876;27;20446;-59
2022/01/28 07:53:52;;;;;;;5.90;1.83;;;5.40;1.00;;;;;;5130217;27;20443;-60
2022/01/28 07:56:18;;;;;;;8.57;1.60;;;5.40;1.00;;;;;;5131221;27;20320;-58
2022/01/28 07:58:44;;;;;;;8.97;2.73;;;;;;;;;;5129681;27;20224;-60
2022/01/28 08:01:10;;;;;;;10.73;2.27;;;5.40;1.00;;;;;;5129470;27;20434;-60
2022/01/28 08:03:35;;;;;;;5.60;2.20;;;5.40;1.00;;;;;;5130204;27;20427;-60
2022/01/28 08:06:01;;;;;;;7.60;2.40;;;5.50;1.00;;;;;;5130167;27;20451;-59
2022/01/28 08:08:27;;;;;;;9.97;2.50;;;5.50;1.00;;;;;;5111828;27;20188;-59
2022/01/28 08:10:52;;;;;;;11.93;2.40;;;5.40;1.00;;;;;;5129954;27;20849;-59
2022/01/28 08:13:18;;;;;;;7.73;2.10;;;5.50;1.00;;;;;;5129587;27;20172;-58
2022/01/28 08:15:44;;;;;;;8.37;2.43;;;5.60;1.00;;;;;;5130980;27;20216;-59
2022/01/28 08:18:10;;;;;;;8.73;1.90;;;5.50;1.00;;;;;;5129784;27;20237;-59
2022/01/28 08:20:36;;;;;;;4.53;2.17;;;5.60;1.00;;;;;;5130464;27;20293;-59
2022/01/28 08:23:02;;;;;;;5.43;1.90;;;5.60;1.00;;;;;;5130555;27;20751;-59
2022/01/28 08:25:31;;;;;;;7.30;2.10;;;5.70;1.00;;;;;;5129817;27;20197;-60
2022/01/28 08:27:57;;;;;;;10.30;3.30;;;5.60;1.00;;;;;;5127819;27;20431;-59
2022/01/28 08:30:25;;;;;;;6.00;1.50;;;5.70;1.00;;;;;;5112201;27;20446;-59
2022/01/28 08:32:52;;;;;;;10.83;3.60;;;5.60;1.00;;;;;;5129842;27;20439;-57
2022/01/28 08:35:28;;;;;;;5.03;1.73;;;5.60;1.00;;;;;;5129139;27;20438;-57
2022/01/28 08:37:54;;;;;;;4.37;1.90;;;5.50;1.00;;;;;;5111108;27;20503;-57
2022/01/28 08:40:20;;;;;;;9.40;2.47;;;;;;;;;;5129725;27;20442;-57
2022/01/28 08:42:45;;;;;;;9.23;2.30;;;5.50;1.00;;;;;;5127452;27;20639;-56
2022/01/28 08:45:11;;;;;;;6.37;1.63;;;5.40;1.00;;;;;;5129623;27;20482;-57
2022/01/28 08:47:37;;;;;;;5.33;1.80;;;;;;;;;;5129384;27;20204;-57
2022/01/28 08:50:03;;;;;;;6.50;1.50;;;5.50;1.00;;;;;;5130701;27;20431;-57
2022/01/28 08:52:29;;;;;;;4.73;1.90;;;5.50;1.00;;;;;;5110089;27;21103;-58
2022/01/28 08:54:54;;;;;;;9.50;2.33;;;5.50;1.00;;;;;;5129389;27;20449;-56
2022/01/28 08:57:20;;;;;;;4.20;1.40;;;5.50;1.00;;;;;;5130864;27;20276;-58
2022/01/28 08:59:45;;;;;;;6.20;1.83;;;5.50;1.00;;;;;;5130206;27;20193;-58
2022/01/28 09:02:11;;;;;;;12.50;2.50;;;5.50;1.00;;;;;;5134323;27;20235;-58
2022/01/28 09:04:37;;;;;;;12.00;3.27;;;5.40;1.00;;;;;;5130806;27;20189;-59
2022/01/28 09:07:03;;;;;;;8.47;2.50;;;5.40;1.00;;;;;;5130469;28;20492;-58
2022/01/28 09:09:29;;;;;;;12.67;2.80;;;5.50;1.00;;;;;;5130817;28;20265;-57
2022/01/28 09:14:25;;;;;;;6.17;2.50;;;5.60;1.00;;;;;;5128816;28;20955;-57
2022/01/28 09:16:52;;;;;;;8.03;2.60;;;5.60;1.00;;;;;;5128419;27;20408;-57
2022/01/28 09:19:18;;;;;;;14.27;2.73;;;5.60;1.00;;;;;;5127616;28;20431;-57
2022/01/28 09:21:44;;;;;;;10.20;2.70;;;5.60;1.00;;;;;;5127660;28;20499;-56
2022/01/28 09:24:10;;;;;;;10.67;2.50;;;5.60;1.00;;;;;;5128738;28;20472;-55
2022/01/28 09:26:36;;;;;;;7.97;1.87;;;5.60;1.00;;;;;;5129684;28;20557;-57
2022/01/28 09:29:03;;;;;;;11.50;2.20;;;5.70;1.00;;;;;;5128031;28;20186;-57
2022/01/28 09:31:29;;;;;;;13.80;2.60;;;;;;;;;;5125674;27;20443;-58
2022/01/28 09:33:55;;;;;;;7.83;2.50;;;5.80;1.00;;;;;;5128409;28;20435;-56
2022/01/28 09:36:21;;;;;;;16.83;4.47;;;5.70;1.00;;;;;;5127103;28;20449;-57
2022/01/28 09:38:47;;;;;;;4.40;1.63;;;5.60;1.00;;;;;;5128722;28;20186;-57
2022/01/28 09:41:14;;;;;;;8.83;2.20;;;5.60;1.00;;;;;;5129120;27;20549;-57
2022/01/28 09:43:43;;;;;;;11.33;2.57;;;5.60;1.00;;;;;;5128116;28;20181;-56
2022/01/28 09:46:09;;;;;;;11.17;3.60;;;5.60;1.00;;;;;;5126567;28;20463;-57
2022/01/28 09:48:35;;;;;;;12.60;2.13;;;5.70;1.00;;;;;;5128914;28;20953;-56
2022/01/28 09:51:02;;;;;;;10.00;3.10;;;5.70;1.00;;;;;;5128150;28;20417;-57
2022/01/28 09:53:28;;;;;;;13.80;2.33;;;5.70;1.00;;;;;;5127767;27;20261;-56
2022/01/28 09:55:54;;;;;;;12.03;3.50;;;5.80;1.00;;;;;;5129663;28;20438;-55
2022/01/28 09:58:19;;;;;;;8.33;2.30;;;5.90;1.00;;;;;;5126785;28;20980;-57
2022/01/28 10:00:45;;;;;;;17.27;3.90;;;5.80;1.00;;;;;;5125192;27;20726;-57
2022/01/28 10:03:12;;;;;;;15.77;2.63;;;5.80;1.00;;;;;;5128882;27;20204;-57
2022/01/28 10:05:43;;;;;;;11.40;2.50;;;5.90;1.00;;;;;;5131607;27;20200;-57
2022/01/28 10:08:19;;;;;;;22.00;4.50;;;5.90;1.00;;;;;;5133031;27;20521;-57
2022/01/28 10:10:48;;;;;;;7.83;2.70;;;5.80;1.00;;;;;;5133616;27;20480;-57
2022/01/28 10:13:31;;;;;;;18.97;3.70;;;5.80;1.00;;;;;;5129732;27;20889;-58
2022/01/28 10:16:03;;;;;;;10.63;3.00;;;5.80;1.00;;;;;;5132065;27;20438;-56
2022/01/28 10:18:54;;;;;;;14.03;2.57;;;5.80;1.00;;;;;;5132742;27;20439;-57
2022/01/28 10:21:21;;;;;;;9.60;2.40;;;5.80;1.00;;;;;;5112997;27;20534;-57
2022/01/28 10:24:07;;;;;;;12.20;2.60;;;;;;;;;;5131196;27;20589;-57
2022/01/28 10:26:41;;;;;;;14.57;4.07;;;5.80;1.00;;;;;;5130611;27;20478;-56
2022/01/28 10:29:28;;;;;;;8.60;2.63;;;5.80;1.00;;;;;;5131518;27;20932;-57
2022/01/28 10:31:59;;;;;;;9.47;2.77;;;5.70;1.00;;;;;;5110819;27;20527;-56
2022/01/28 10:34:25;;;;;;;7.60;2.50;;;;;;;;;;5132847;27;20434;-57
2022/01/28 10:37:24;;;;;;;7.67;2.77;;;5.80;1.00;;;;;;5113460;27;20442;-57
2022/01/28 10:39:53;;;;;;;18.37;3.00;;;5.90;1.00;;;;;;5132213;27;20434;-57
2022/01/28 10:42:32;;;;;;;19.20;3.07;;;5.80;1.00;;;;;;5131766;27;20450;-57
2022/01/28 10:45:11;;;;;;;6.93;2.77;;;5.80;1.00;;;;;;5132466;27;20463;-57
2022/01/28 10:47:51;;;;;;;15.13;3.13;;;5.80;1.00;;;;;;5133083;27;20433;-57
2022/01/28 10:50:36;;;;;;;14.90;3.40;;;5.70;1.00;;;;;;5132714;27;20427;-56
2022/01/28 10:53:13;;;;;;;16.97;3.27;;;5.70;1.00;;;;;;5133061;27;20808;-58
2022/01/28 10:55:45;;;;;;;12.00;3.80;;;5.60;1.00;;;;;;5132923;27;20438;-56
2022/01/28 10:58:14;;;;;;;14.10;3.30;;;5.80;1.00;;;;;;5132375;27;20471;-57
2022/01/28 11:00:42;;;;;;;12.47;5.00;;;5.80;1.00;;;;;;5131252;27;20443;-57
2022/01/28 11:03:13;;;;;;;8.77;2.90;;;5.90;1.00;;;;;;5131357;27;20932;-56
2022/01/28 11:05:39;;;;;;;13.30;2.73;;;5.90;1.00;;;;;;5133767;27;20929;-57
2022/01/28 11:08:07;;;;;;;12.40;3.50;;;6.00;1.00;;;;;;5111928;27;20491;-56
2022/01/28 11:10:33;;;;;;;11.50;2.70;;;5.90;1.00;;;;;;5130801;27;20431;-57
2022/01/28 11:13:00;;;;;;;10.20;3.20;;;5.90;1.00;;;;;;5129925;27;21089;-57
2022/01/28 11:15:27;;;;;;;13.10;3.37;;;6.00;1.00;;;;;;5130897;27;20426;-57
2022/01/28 11:17:54;;;;;;;10.27;3.67;;;6.00;1.00;;;;;;5131220;27;20817;-58
2022/01/28 11:20:23;;;;;;;12.03;4.17;;;6.10;1.00;;;;;;5111456;27;20788;-58
2022/01/28 11:22:59;;;;;;;8.17;2.23;;;5.90;1.00;;;;;;5130225;27;20446;-57
2022/01/28 11:25:42;;;;;;;9.23;3.10;;;6.00;1.00;;;;;;5132072;27;20477;-57
2022/01/28 11:28:11;;;;;;;14.83;3.13;;;6.00;1.00;;;;;;5113886;27;20435;-57
2022/01/28 11:30:54;;;;;;;12.73;3.50;;;6.10;1.00;;;;;;5130965;27;20896;-57
2022/01/28 11:33:20;;;;;;;11.57;2.70;;;6.10;1.00;;;;;;5130490;27;20804;-56
2022/01/28 11:35:52;;;;;;;8.10;2.50;;;6.00;1.00;;;;;;5129770;27;20436;-58
2022/01/28 11:38:27;;;;;;;9.27;2.20;;;6.10;1.00;;;;;;5130248;27;20204;-58
2022/01/28 11:41:05;;;;;;;9.03;2.97;;;6.30;1.00;;;;;;5129787;27;20802;-58
2022/01/28 11:43:33;;;;;;;12.30;3.13;;;6.30;1.00;;;;;;5129745;27;20787;-57
2022/01/28 11:46:06;;;;;;;10.87;2.90;;;6.20;1.00;;;;;;5127993;27;20473;-57
2022/01/28 11:48:53;;;;;;;5.47;2.57;;;6.10;1.00;;;;;;5130409;27;20450;-57
2022/01/28 11:51:23;;;;;;;13.80;2.90;;;6.00;1.00;;;;;;5131354;27;20430;-57
2022/01/28 11:54:00;;;;;;;16.50;3.17;;;6.00;1.00;;;;;;5129582;27;20525;-57
2022/01/28 11:56:26;;;;;;;11.10;3.17;;;6.00;1.00;;;;;;5130232;27;20986;-58
2022/01/28 11:59:03;;;;;;;9.37;2.43;;;6.00;1.00;;;;;;5127331;27;20436;-56
2022/01/28 12:01:40;;;;;;;12.80;2.90;;;6.00;1.00;;;;;;5129491;27;20855;-56
2022/01/28 12:04:25;;;;;;;13.80;3.00;;;6.20;1.00;;;;;;5126819;27;20442;-58
2022/01/28 12:07:02;;;;;;;6.67;2.10;;;6.20;1.00;;;;;;5111880;27;20773;-58
2022/01/28 12:09:29;;;;;;;12.93;2.60;;;6.10;1.00;;;;;;5128793;27;20439;-57
2022/01/28 12:11:55;;;;;;;15.10;3.83;;;6.20;1.00;;;;;;5110696;27;20450;-58
2022/01/28 12:17:36;;;;;;;11.50;3.10;;;6.30;1.00;;;;;;5129950;27;20402;-58
2022/01/28 12:20:14;;;;;;;12.47;3.37;;;6.50;1.00;;;;;;5108438;27;20434;-57
2022/01/28 12:22:58;;;;;;;9.37;2.43;;;6.30;1.00;;;;;;5129606;27;20441;-58
2022/01/28 12:25:55;;;;;;;10.50;2.50;;;6.30;1.00;;;;;;5129730;27;20447;-57
2022/01/28 12:28:26;;;;;;;11.80;3.20;;;6.40;1.00;;;;;;5104932;27;20524;-58
2022/01/28 12:30:59;;;;;;;5.83;3.00;;;6.40;1.00;;;;;;5129217;27;20492;-58
2022/01/28 12:33:27;;;;;;;9.73;2.13;;;6.40;1.00;;;;;;5129035;27;20959;-56
2022/01/28 12:35:56;;;;;;;11.33;2.27;;;6.30;1.00;;;;;;5111791;27;20734;-58
2022/01/28 12:38:25;;;;;;;13.80;2.60;;;6.30;1.00;;;;;;5129558;27;20424;-58
2022/01/28 12:40:54;;;;;;;8.10;2.37;;;6.50;1.00;;;;;;5128795;27;20815;-56
2022/01/28 12:43:22;;;;;;;7.50;2.27;;;6.50;1.00;;;;;;5124619;27;20443;-56
2022/01/28 12:46:00;;;;;;;16.73;3.60;;;6.60;1.00;;;;;;5128918;27;20551;-58
2022/01/28 12:48:26;;;;;;;10.10;3.23;;;6.80;1.00;;;;;;5130089;27;20774;-57
2022/01/28 12:50:54;;;;;;;9.10;2.60;;;6.70;1.00;;;;;;5111498;27;20437;-57
2022/01/28 12:53:43;;;;;;;6.17;2.30;;;7.10;1.00;;;;;;5129102;27;20242;-57
2022/01/28 12:56:11;;;;;;;7.63;2.83;;;6.90;1.00;;;;;;5127711;27;20960;-56
2022/01/28 12:58:48;;;;;;;11.13;2.97;;;6.80;1.00;;;;;;5129630;27;20890;-56
2022/01/28 13:01:17;;;;;;;11.60;2.63;;;6.80;1.00;;;;;;5127937;27;20510;-57
2022/01/28 13:03:54;;;;;;;9.00;3.40;;;6.60;1.00;;;;;;5127984;28;20438;-57
2022/01/28 13:09:09;;;;;;;10.03;3.40;;;6.60;1.00;;;;;;5129928;27;20532;-57
2022/01/28 13:11:41;;;;;;;15.20;4.30;;;6.60;1.00;;;;;;5130939;28;20497;-58
2022/01/28 13:14:06;;;;;;;5.60;2.20;;;6.70;1.00;;;;;;5131133;27;20543;-57
2022/01/28 13:16:41;;;;;;;12.93;2.80;;;6.70;1.00;;;;;;5111415;28;21044;-57
2022/01/28 13:19:09;;;;;;;16.23;3.40;;;6.60;1.00;;;;;;5130919;27;20180;-57
2022/01/28 13:21:35;;;;;;;11.83;2.20;;;;;;;;;;5130278;27;20753;-57
2022/01/28 13:24:19;;;;;;;10.37;2.70;;;6.60;1.00;;;;;;5130149;28;20636;-56
2022/01/28 13:26:52;;;;;;;11.80;2.80;;;6.60;1.00;;;;;;5130099;27;20466;-56
2022/01/28 13:29:27;;;;;;;8.23;2.73;;;6.80;1.00;;;;;;5130459;27;20405;-57
2022/01/28 13:31:57;;;;;;;14.60;3.33;;;6.90;1.00;;;;;;5130237;28;20580;-56
2022/01/28 13:34:23;;;;;;;10.97;3.17;;;6.90;1.00;;;;;;5130259;28;20429;-57
2022/01/28 13:36:52;;;;;;;12.80;3.43;;;6.80;1.00;;;;;;5130413;27;20416;-57
2022/01/28 13:39:23;;;;;;;12.13;2.77;;;6.90;1.00;;;;;;5134570;27;20438;-57
2022/01/28 13:42:14;;;;;;;5.50;2.57;;;6.90;1.00;;;;;;5135997;27;20428;-57
2022/01/28 13:44:44;;;;;;;7.33;2.70;;;6.90;1.00;;;;;;5133544;27;20468;-57
2022/01/28 13:47:11;;;;;;;12.90;3.80;;;6.80;1.00;;;;;;5134911;27;20537;-56
2022/01/28 13:49:39;;;;;;;7.60;2.30;;;6.80;1.00;;;;;;5137057;27;20429;-57
2022/01/28 13:52:18;;;;;;;4.93;2.43;;;6.80;1.00;;;;;;5134774;27;21741;-56
2022/01/28 13:54:44;;;;;;;9.47;2.50;;;6.70;1.00;;;;;;5134377;27;20947;-56
2022/01/28 13:57:10;;;;;;;13.80;3.23;;;6.60;1.00;;;;;;5133906;27;20478;-57
2022/01/28 13:59:39;;;;;;;15.23;3.57;;;6.50;1.00;;;;;;5136040;27;20453;-56
2022/01/28 14:02:14;;;;;;;12.80;2.30;;;6.50;1.00;;;;;;5133806;27;20919;-57
2022/01/28 14:04:47;;;;;;;11.60;3.27;;;6.50;1.00;;;;;;5137197;27;20421;-57
2022/01/28 14:07:31;;;;;;;6.33;2.77;;;6.60;1.00;;;;;;5134013;27;20446;-57
2022/01/28 14:10:00;;;;;;;9.27;3.20;;;6.60;1.00;;;;;;5133810;27;20449;-57
2022/01/28 14:15:12;;;;;;;9.27;2.53;;;6.50;1.00;;;;;;5133434;27;20442;-57
2022/01/28 14:17:39;;;;;;;8.60;2.67;;;6.60;1.00;;;;;;5133669;27;20413;-57
2022/01/28 14:20:05;;;;;;;15.27;3.67;;;6.50;1.00;;;;;;5115440;27;20427;-57
2022/01/28 14:22:31;;;;;;;7.97;2.40;;;6.50;1.00;;;;;;5115281;27;20423;-56
2022/01/28 14:24:57;;;;;;;7.97;2.40;;;6.40;1.00;;;;;;5133333;27;20750;-57
2022/01/28 14:29:55;;;;;;;10.57;3.23;;;6.40;1.00;;;;;;5133789;27;20431;-56
2022/01/28 14:32:23;;;;;;;8.10;2.67;;;6.40;1.00;;;;;;5133586;27;20431;-56
2022/01/28 14:34:52;;;;;;;12.60;3.00;;;6.40;1.00;;;;;;5133515;27;20490;-56
2022/01/28 14:37:19;;;;;;;11.97;2.73;;;6.50;1.00;;;;;;5133257;27;20435;-56
2022/01/28 14:39:45;;;;;;;7.10;2.63;;;6.40;1.00;;;;;;5135829;27;20445;-56
2022/01/28 14:42:12;;;;;;;8.30;3.03;;;6.40;1.00;;;;;;5112988;27;20526;-57
2022/01/28 14:44:43;;;;;;;12.80;2.37;;;6.30;1.00;;;;;;5133628;27;20550;-57
2022/01/28 14:47:09;;;;;;;24.77;3.37;;;6.40;1.00;;;;;;5133188;27;20465;-57
2022/01/28 14:49:35;;;;;;;12.73;3.57;;;6.40;1.00;;;;;;5115031;27;20427;-56
2022/01/28 14:52:06;;;;;;;6.37;3.03;;;6.50;1.00;;;;;;5114466;27;20684;-56
2022/01/28 14:54:31;;;;;;;9.20;2.47;;;6.60;1.00;;;;;;5133278;27;20467;-56
2022/01/28 14:56:59;;;;;;;10.83;3.00;;;6.60;1.00;;;;;;5133103;27;20437;-57
2022/01/28 14:59:24;;;;;;;8.53;2.50;;;6.60;1.00;;;;;;5132756;27;20177;-56
2022/01/28 15:01:51;;;;;;;7.27;2.47;;;6.50;1.00;;;;;;5132865;27;20929;-56